^^
Meteo Knjazevac Station Historical Data
Daily Summary for January 15, 2022 Units:  Both    English   Metric
Daily Weekly Monthly Yearly Custom
  High: Low: Average:
Temperature: 85 °F /  29.4 °C 62.1 °F /  16.7 °C 70.1 °F /  21.2 °C
Dew Point: 70.6 °F /  21.4 °C 61.8 °F /  16.6 °C 65.4 °F /  18.6 °C
Humidity: 99% 59.9% 87%
Wind Speed: 12mph /  19.3km/h - 5.2mph /  8.4km/h
Wind Gust: 13mph /  20.9km/h - -
Wind- - South
Pressure: 29.90 in /  1012.4 hPa 29.85 in /  1010.7 hPa -
Precipitation: 0.00 in /  0 mm    
Historical Graphs
 
 
Tabular Data for January 15, 2022
Time Temperature Dew Point Pressure Wind Wind Speed Wind Gust Humidity Rainfall Rate (Hourly) solar Conditions
00:04 63.1 °F /  17.3 °C 62.9 °F /  17.2 °C 29.89in /  1012.1hPa NE 3.2mph /  5.1km/h 4mph /  6.4km/h 99% 0.00in /  0mm 0 W/m2
00:09 63 °F /  17.2 °C 62.7 °F /  17.1 °C 29.89in /  1012.1hPa NE 4mph /  6.4km/h 5mph /  8km/h 99% 0.00in /  0mm 0 W/m2
00:14 63 °F /  17.2 °C 62.7 °F /  17.1 °C 29.89in /  1012.1hPa NE 3.1mph /  5km/h 3.1mph /  5km/h 99% 0.00in /  0mm 0 W/m2
00:19 63 °F /  17.2 °C 62.7 °F /  17.1 °C 29.89in /  1012.1hPa NE 3.9mph /  6.3km/h 4mph /  6.4km/h 99% 0.00in /  0mm 0 W/m2
00:24 63 °F /  17.2 °C 62.7 °F /  17.1 °C 29.89in /  1012.1hPa ENE 5.1mph /  8.2km/h 4.2mph /  6.8km/h 99% 0.00in /  0mm 0 W/m2
00:28 63 °F /  17.2 °C 62.7 °F /  17.1 °C 29.89in /  1012.1hPa ENE 6.2mph /  10km/h 4.5mph /  7.2km/h 99% 0.00in /  0mm 0 W/m2
00:34 63 °F /  17.2 °C 62.7 °F /  17.1 °C 29.89in /  1012.1hPa East 7.6mph /  12.2km/h 7mph /  11.3km/h 99% 0.00in /  0mm 0 W/m2
00:39 63 °F /  17.2 °C 62.7 °F /  17.1 °C 29.89in /  1012.1hPa East 6.1mph /  9.8km/h 9mph /  14.5km/h 99% 0.00in /  0mm 0 W/m2
00:44 63 °F /  17.2 °C 62.7 °F /  17.1 °C 29.89in /  1012.1hPa ESE 7.1mph /  11.4km/h 7mph /  11.3km/h 99% 0.00in /  0mm 0 W/m2
00:49 62.9 °F /  17.2 °C 62.6 °F /  17 °C 29.89in /  1012.1hPa ESE 8mph /  12.9km/h 9mph /  14.5km/h 99% 0.00in /  0mm 0 W/m2
00:54 62.8 °F /  17.1 °C 62.5 °F /  16.9 °C 29.89in /  1012.1hPa ESE 7.8mph /  12.6km/h 5.4mph /  8.7km/h 99% 0.00in /  0mm 0 W/m2
00:59 62.8 °F /  17.1 °C 62.5 °F /  16.9 °C 29.89in /  1012.1hPa SE 5.7mph /  9.2km/h 8mph /  12.9km/h 99% 0.00in /  0mm 0 W/m2
01:04 62.8 °F /  17.1 °C 62.5 °F /  16.9 °C 29.89in /  1012.1hPa SE 4.8mph /  7.7km/h 7mph /  11.3km/h 99% 0.00in /  0mm 0 W/m2
01:09 62.8 °F /  17.1 °C 62.5 °F /  16.9 °C 29.89in /  1012.1hPa SE 2.5mph /  4km/h 6mph /  9.7km/h 99% 0.00in /  0mm 0 W/m2
01:14 62.8 °F /  17.1 °C 62.5 °F /  16.9 °C 29.89in /  1012.1hPa SSW 3.3mph /  5.3km/h 3mph /  4.8km/h 99% 0.00in /  0mm 0 W/m2
01:19 62.8 °F /  17.1 °C 62.5 °F /  16.9 °C 29.89in /  1012.1hPa SW 4.2mph /  6.8km/h 2.2mph /  3.5km/h 99% 0.00in /  0mm 0 W/m2
01:24 62.8 °F /  17.1 °C 62.5 °F /  16.9 °C 29.89in /  1012.1hPa SW 3.6mph /  5.8km/h 5mph /  8km/h 99% 0.00in /  0mm 0 W/m2
01:29 62.9 °F /  17.2 °C 62.6 °F /  17 °C 29.89in /  1012.1hPa South 4.6mph /  7.4km/h 5mph /  8km/h 99% 0.00in /  0mm 0 W/m2
01:33 63.1 °F /  17.3 °C 62.9 °F /  17.2 °C 29.89in /  1012.1hPa SE 4mph /  6.4km/h 6mph /  9.7km/h 99% 0.00in /  0mm 0 W/m2
01:39 63.1 °F /  17.3 °C 62.9 °F /  17.2 °C 29.89in /  1012.1hPa South 3.4mph /  5.5km/h 5mph /  8km/h 99% 0.00in /  0mm 0 W/m2
01:44 63.2 °F /  17.3 °C 62.9 °F /  17.2 °C 29.88in /  1011.7hPa SW 3.3mph /  5.3km/h 4mph /  6.4km/h 99% 0.00in /  0mm 0 W/m2
01:49 63.3 °F /  17.4 °C 63 °F /  17.2 °C 29.89in /  1012.1hPa South 2.9mph /  4.7km/h 4mph /  6.4km/h 99% 0.00in /  0mm 0 W/m2
01:54 63.3 °F /  17.4 °C 63 °F /  17.2 °C 29.89in /  1012.1hPa ENE 1.6mph /  2.6km/h 4mph /  6.4km/h 99% 0.00in /  0mm 0 W/m2
01:59 63.1 °F /  17.3 °C 62.9 °F /  17.2 °C 29.88in /  1011.7hPa NW 3.4mph /  5.5km/h 3mph /  4.8km/h 99% 0.00in /  0mm 0 W/m2
02:04 63.2 °F /  17.3 °C 62.9 °F /  17.2 °C 29.88in /  1011.7hPa SW 4.1mph /  6.6km/h 5mph /  8km/h 99% 0.00in /  0mm 0 W/m2
02:09 63.4 °F /  17.4 °C 63.1 °F /  17.3 °C 29.88in /  1011.7hPa South 6mph /  9.7km/h 5mph /  8km/h 99% 0.00in /  0mm 0 W/m2
02:14 63.6 °F /  17.6 °C 63.3 °F /  17.4 °C 29.88in /  1011.7hPa South 2.5mph /  4km/h 7mph /  11.3km/h 99% 0.00in /  0mm 0 W/m2
02:19 63.6 °F /  17.6 °C 63.3 °F /  17.4 °C 29.89in /  1012.1hPa SSW 1.7mph /  2.7km/h 4mph /  6.4km/h 99% 0.00in /  0mm 0 W/m2
02:24 63.5 °F /  17.5 °C 63.2 °F /  17.3 °C 29.89in /  1012.1hPa West 1.2mph /  1.9km/h 2mph /  3.2km/h 99% 0.00in /  0mm 0 W/m2
02:29 63.3 °F /  17.4 °C 63 °F /  17.2 °C 29.89in /  1012.1hPa NW 2.5mph /  4km/h 1.8mph /  2.9km/h 99% 0.00in /  0mm 0 W/m2
02:34 63.3 °F /  17.4 °C 63 °F /  17.2 °C 29.89in /  1012.1hPa East 2.8mph /  4.5km/h 3.4mph /  5.5km/h 99% 0.00in /  0mm 0 W/m2
02:39 63.3 °F /  17.4 °C 63 °F /  17.2 °C 29.89in /  1012.1hPa ENE 3.5mph /  5.6km/h 4mph /  6.4km/h 99% 0.00in /  0mm 0 W/m2
02:44 63.3 °F /  17.4 °C 63 °F /  17.2 °C 29.88in /  1011.7hPa ENE 2.4mph /  3.9km/h 4mph /  6.4km/h 99% 0.00in /  0mm 0 W/m2
02:49 63.3 °F /  17.4 °C 63 °F /  17.2 °C 29.88in /  1011.7hPa East 2.9mph /  4.7km/h 3mph /  4.8km/h 99% 0.00in /  0mm 0 W/m2
02:54 63.3 °F /  17.4 °C 63 °F /  17.2 °C 29.89in /  1012.1hPa ESE 3.3mph /  5.3km/h 2.5mph /  4km/h 99% 0.00in /  0mm 0 W/m2
02:59 63.5 °F /  17.5 °C 63.2 °F /  17.3 °C 29.89in /  1012.1hPa ESE 2.9mph /  4.7km/h 4mph /  6.4km/h 99% 0.00in /  0mm 0 W/m2
03:04 63.5 °F /  17.5 °C 63.2 °F /  17.3 °C 29.89in /  1012.1hPa East 3.9mph /  6.3km/h 3.6mph /  5.8km/h 99% 0.00in /  0mm 0 W/m2
03:09 63.5 °F /  17.5 °C 63.2 °F /  17.3 °C 29.88in /  1011.7hPa ESE 3.4mph /  5.5km/h 5mph /  8km/h 99% 0.00in /  0mm 0 W/m2
03:14 63.3 °F /  17.4 °C 63.1 °F /  17.3 °C 29.89in /  1012.1hPa ESE 2.8mph /  4.5km/h 4mph /  6.4km/h 99% 0.00in /  0mm 0 W/m2
03:19 63.2 °F /  17.3 °C 62.9 °F /  17.2 °C 29.89in /  1012.1hPa ESE 2.7mph /  4.3km/h 3mph /  4.8km/h 99% 0.00in /  0mm 0 W/m2
03:24 63.2 °F /  17.3 °C 62.9 °F /  17.2 °C 29.89in /  1012.1hPa ESE 3.7mph /  6km/h 3mph /  4.8km/h 99% 0.00in /  0mm 0 W/m2
03:29 63.3 °F /  17.4 °C 63 °F /  17.2 °C 29.88in /  1011.7hPa ESE 4.3mph /  6.9km/h 5mph /  8km/h 99% 0.00in /  0mm 0 W/m2
03:34 63.3 °F /  17.4 °C 63 °F /  17.2 °C 29.88in /  1011.7hPa ESE 4.5mph /  7.2km/h 5mph /  8km/h 99% 0.00in /  0mm 0 W/m2
03:39 63.5 °F /  17.5 °C 63.2 °F /  17.3 °C 29.88in /  1011.7hPa SE 4.3mph /  6.9km/h 6mph /  9.7km/h 99% 0.00in /  0mm 0 W/m2
03:44 63.5 °F /  17.5 °C 63.2 °F /  17.3 °C 29.88in /  1011.7hPa SE 2.2mph /  3.5km/h 6mph /  9.7km/h 99% 0.00in /  0mm 0 W/m2
03:49 63.3 °F /  17.4 °C 63 °F /  17.2 °C 29.88in /  1011.7hPa SSE 2.6mph /  4.2km/h 3mph /  4.8km/h 99% 0.00in /  0mm 0 W/m2
03:54 63.2 °F /  17.3 °C 62.9 °F /  17.2 °C 29.88in /  1011.7hPa SSW 3.1mph /  5km/h 3mph /  4.8km/h 99% 0.00in /  0mm 0 W/m2
03:59 63.1 °F /  17.3 °C 62.8 °F /  17.1 °C 29.89in /  1012.1hPa SSE 2.9mph /  4.7km/h 3mph /  4.8km/h 99% 0.00in /  0mm 0 W/m2
04:04 62.9 °F /  17.2 °C 62.6 °F /  17 °C 29.89in /  1012.1hPa South 2.5mph /  4km/h 3mph /  4.8km/h 99% 0.00in /  0mm 0 W/m2
04:09 62.8 °F /  17.1 °C 62.5 °F /  16.9 °C 29.89in /  1012.1hPa SW 1.7mph /  2.7km/h 3mph /  4.8km/h 99% 0.00in /  0mm 0 W/m2
04:14 62.8 °F /  17.1 °C 62.5 °F /  16.9 °C 29.89in /  1012.1hPa WNW 2mph /  3.2km/h 2mph /  3.2km/h 99% 0.00in /  0mm 0 W/m2
04:19 62.7 °F /  17.1 °C 62.4 °F /  16.9 °C 29.89in /  1012.1hPa North 1.5mph /  2.4km/h 2mph /  3.2km/h 99% 0.00in /  0mm 0 W/m2
04:24 62.6 °F /  17 °C 62.3 °F /  16.8 °C 29.89in /  1012.1hPa East 1.5mph /  2.4km/h 0.7mph /  1.1km/h 99% 0.00in /  0mm 0 W/m2
04:29 62.6 °F /  17 °C 62.3 °F /  16.8 °C 29.89in /  1012.1hPa ENE 2.3mph /  3.7km/h 1.1mph /  1.8km/h 99% 0.00in /  0mm 0 W/m2
04:34 62.6 °F /  17 °C 62.3 °F /  16.8 °C 29.89in /  1012.1hPa ENE 2mph /  3.2km/h 2mph /  3.2km/h 99% 0.00in /  0mm 0 W/m2
04:39 62.6 °F /  17 °C 62.3 °F /  16.8 °C 29.89in /  1012.1hPa ENE 1.6mph /  2.6km/h 3mph /  4.8km/h 99% 0.00in /  0mm 0 W/m2
04:44 62.4 °F /  16.9 °C 62.1 °F /  16.7 °C 29.88in /  1011.7hPa ENE 1mph /  1.6km/h 3mph /  4.8km/h 99% 0.00in /  0mm 0 W/m2
04:49 62.4 °F /  16.9 °C 62.1 °F /  16.7 °C 29.89in /  1012.1hPa NE 1.8mph /  2.9km/h 2mph /  3.2km/h 99% 0.00in /  0mm 0 W/m2
04:54 62.3 °F /  16.8 °C 62 °F /  16.7 °C 29.89in /  1012.1hPa NE 0.5mph /  0.8km/h 2mph /  3.2km/h 99% 0.00in /  0mm 0 W/m2
04:59 62.2 °F /  16.8 °C 62 °F /  16.7 °C 29.89in /  1012.1hPa Calm   1mph /  1.6km/h 99% 0.00in /  0mm 0 W/m2
05:03 62.1 °F /  16.7 °C 61.8 °F /  16.6 °C 29.88in /  1011.7hPa NE 1.4mph /  2.3km/h 1.1mph /  1.8km/h 99% 0.00in /  0mm 0 W/m2
05:08 62.2 °F /  16.8 °C 61.9 °F /  16.6 °C 29.89in /  1012.1hPa ENE 2.5mph /  4km/h 2mph /  3.2km/h 99% 0.00in /  0mm 0 W/m2
05:14 62.4 °F /  16.9 °C 62.1 °F /  16.7 °C 29.89in /  1012.1hPa SE 3.5mph /  5.6km/h 3mph /  4.8km/h 99% 0.00in /  0mm 0 W/m2
05:19 62.7 °F /  17.1 °C 62.3 °F /  16.8 °C 29.89in /  1012.1hPa SE 3.3mph /  5.3km/h 4mph /  6.4km/h 99% 0.00in /  0mm 0 W/m2
05:24 62.6 °F /  17 °C 62.3 °F /  16.8 °C 29.89in /  1012.1hPa SE 3.8mph /  6.1km/h 3mph /  4.8km/h 99% 0.00in /  0mm 0 W/m2
05:29 62.8 °F /  17.1 °C 62.5 °F /  16.9 °C 29.89in /  1012.1hPa SE 3.4mph /  5.5km/h 5mph /  8km/h 99% 0.00in /  0mm 1 W/m2
05:34 62.8 °F /  17.1 °C 62.5 °F /  16.9 °C 29.89in /  1012.1hPa ESE 4.6mph /  7.4km/h 4mph /  6.4km/h 99% 0.00in /  0mm 2 W/m2
05:39 63 °F /  17.2 °C 62.7 °F /  17.1 °C 29.89in /  1012.1hPa ESE 5.5mph /  8.9km/h 6mph /  9.7km/h 99% 0.00in /  0mm 4 W/m2
05:44 63.1 °F /  17.3 °C 62.8 °F /  17.1 °C 29.89in /  1012.1hPa SE 5.9mph /  9.5km/h 6mph /  9.7km/h 99% 0.00in /  0mm 8 W/m2
05:49 63.1 °F /  17.3 °C 62.9 °F /  17.2 °C 29.89in /  1012.1hPa SE 4.2mph /  6.8km/h 7mph /  11.3km/h 99% 0.00in /  0mm 13 W/m2
05:54 63.1 °F /  17.3 °C 62.9 °F /  17.2 °C 29.89in /  1012.1hPa SSE 3.9mph /  6.3km/h 5mph /  8km/h 99% 0.00in /  0mm 20 W/m2
05:59 63.1 °F /  17.3 °C 62.9 °F /  17.2 °C 29.89in /  1012.1hPa SSE 4.2mph /  6.8km/h 5mph /  8km/h 99% 0.00in /  0mm 26 W/m2
06:04 63.1 °F /  17.3 °C 62.9 °F /  17.2 °C 29.89in /  1012.1hPa South 4.4mph /  7.1km/h 6mph /  9.7km/h 99% 0.00in /  0mm 33 W/m2
06:09 63 °F /  17.2 °C 62.8 °F /  17.1 °C 29.89in /  1012.1hPa South 2.8mph /  4.5km/h 5mph /  8km/h 99% 0.00in /  0mm 40 W/m2
06:14 63 °F /  17.2 °C 62.7 °F /  17.1 °C 29.89in /  1012.1hPa SSW 2.1mph /  3.4km/h 4mph /  6.4km/h 99% 0.00in /  0mm 48 W/m2
06:19 62.9 °F /  17.2 °C 62.6 °F /  17 °C 29.89in /  1012.1hPa WSW 1.7mph /  2.7km/h 3mph /  4.8km/h 99% 0.00in /  0mm 53 W/m2
06:24 62.8 °F /  17.1 °C 62.5 °F /  16.9 °C 29.89in /  1012.1hPa WSW 1.7mph /  2.7km/h 2mph /  3.2km/h 99% 0.00in /  0mm 60 W/m2
06:29 62.8 °F /  17.1 °C 62.5 °F /  16.9 °C 29.89in /  1012.1hPa West 2.4mph /  3.9km/h 2mph /  3.2km/h 99% 0.00in /  0mm 68 W/m2
06:34 62.8 °F /  17.1 °C 62.5 °F /  16.9 °C 29.89in /  1012.1hPa WNW 1.7mph /  2.7km/h 3mph /  4.8km/h 99% 0.00in /  0mm 74 W/m2
06:39 62.8 °F /  17.1 °C 62.6 °F /  17 °C 29.89in /  1012.1hPa West 2.3mph /  3.7km/h 3mph /  4.8km/h 99% 0.00in /  0mm 79 W/m2
06:44 63.1 °F /  17.3 °C 62.9 °F /  17.2 °C 29.89in /  1012.1hPa SSE 2.3mph /  3.7km/h 3mph /  4.8km/h 99% 0.00in /  0mm 93 W/m2
06:49 63.3 °F /  17.4 °C 63 °F /  17.2 °C 29.89in /  1012.1hPa ESE 1.8mph /  2.9km/h 3mph /  4.8km/h 99% 0.00in /  0mm 94 W/m2
06:54 63.6 °F /  17.6 °C 63.3 °F /  17.4 °C 29.89in /  1012.1hPa East 2.2mph /  3.5km/h 1.3mph /  2.1km/h 99% 0.00in /  0mm 105 W/m2
06:59 63.8 °F /  17.7 °C 63.5 °F /  17.5 °C 29.90in /  1012.4hPa East 3.3mph /  5.3km/h 4mph /  6.4km/h 99% 0.00in /  0mm 116 W/m2
07:04 64 °F /  17.8 °C 63.8 °F /  17.7 °C 29.90in /  1012.4hPa SE 3.8mph /  6.1km/h 4mph /  6.4km/h 99% 0.00in /  0mm 122 W/m2
07:09 64.2 °F /  17.9 °C 63.9 °F /  17.7 °C 29.90in /  1012.4hPa ESE 2.5mph /  4km/h 5mph /  8km/h 99% 0.00in /  0mm 118 W/m2
07:14 64.4 °F /  18 °C 64.1 °F /  17.8 °C 29.90in /  1012.4hPa ESE 2.8mph /  4.5km/h 3mph /  4.8km/h 99% 0.00in /  0mm 151 W/m2
07:19 64.6 °F /  18.1 °C 64.3 °F /  17.9 °C 29.90in /  1012.4hPa ESE 2.3mph /  3.7km/h 4mph /  6.4km/h 99% 0.00in /  0mm 171 W/m2
07:24 64.7 °F /  18.2 °C 64.3 °F /  17.9 °C 29.90in /  1012.4hPa NE 2.6mph /  4.2km/h 2.7mph /  4.3km/h 98.7% 0.00in /  0mm 184 W/m2
07:28 64.9 °F /  18.3 °C 64.4 °F /  18 °C 29.90in /  1012.4hPa East 4.2mph /  6.8km/h 4mph /  6.4km/h 98% 0.00in /  0mm 192 W/m2
07:34 65.4 °F /  18.6 °C 64.8 °F /  18.2 °C 29.90in /  1012.4hPa SE 4.9mph /  7.9km/h 5mph /  8km/h 98% 0.00in /  0mm 187 W/m2
07:39 65.7 °F /  18.7 °C 64.5 °F /  18.1 °C 29.90in /  1012.4hPa SE 6.3mph /  10.1km/h 7mph /  11.3km/h 96.1% 0.00in /  0mm 237 W/m2
07:43 65.8 °F /  18.8 °C 64.7 °F /  18.2 °C 29.90in /  1012.4hPa SE 3.1mph /  5km/h 7mph /  11.3km/h 96% 0.00in /  0mm 243 W/m2
07:49 66.2 °F /  19 °C 65 °F /  18.3 °C 29.90in /  1012.4hPa SSE 2.8mph /  4.5km/h 4mph /  6.4km/h 96% 0.00in /  0mm 272 W/m2
07:54 66.4 °F /  19.1 °C 65.1 °F /  18.4 °C 29.90in /  1012.4hPa South 2.9mph /  4.7km/h 3.1mph /  5km/h 95.6% 0.00in /  0mm 289 W/m2
07:59 66.7 °F /  19.3 °C 65.1 °F /  18.4 °C 29.90in /  1012.4hPa South 3.5mph /  5.6km/h 4mph /  6.4km/h 94.6% 0.00in /  0mm 307 W/m2
08:03 67 °F /  19.4 °C 65.2 °F /  18.4 °C 29.90in /  1012.4hPa SSE 3.1mph /  5km/h 5mph /  8km/h 94% 0.00in /  0mm 318 W/m2
08:09 67.4 °F /  19.7 °C 65.3 °F /  18.5 °C 29.90in /  1012.4hPa South 2.7mph /  4.3km/h 4mph /  6.4km/h 93% 0.00in /  0mm 341 W/m2
08:14 67.6 °F /  19.8 °C 65.5 °F /  18.6 °C 29.90in /  1012.4hPa South 3mph /  4.8km/h 4mph /  6.4km/h 93% 0.00in /  0mm 355 W/m2
08:19 67.8 °F /  19.9 °C 65.5 °F /  18.6 °C 29.90in /  1012.4hPa SSW 3.6mph /  5.8km/h 4mph /  6.4km/h 92.2% 0.00in /  0mm 372 W/m2
08:24 68.3 °F /  20.2 °C 65.5 °F /  18.6 °C 29.90in /  1012.4hPa SW 5.4mph /  8.7km/h 6mph /  9.7km/h 91% 0.00in /  0mm 395 W/m2
08:29 68.8 °F /  20.4 °C 65.7 °F /  18.7 °C 29.90in /  1012.4hPa SW 6.5mph /  10.5km/h 7mph /  11.3km/h 89.6% 0.00in /  0mm 411 W/m2
08:34 69.5 °F /  20.8 °C 66.1 °F /  18.9 °C 29.90in /  1012.4hPa SW 6.4mph /  10.3km/h 7mph /  11.3km/h 88.7% 0.00in /  0mm 426 W/m2
08:39 70.3 °F /  21.3 °C 66.3 °F /  19.1 °C 29.90in /  1012.4hPa SW 8.1mph /  13km/h 9mph /  14.5km/h 87.4% 0.00in /  0mm 442 W/m2
08:44 70.8 °F /  21.6 °C 66.2 °F /  19 °C 29.90in /  1012.4hPa SW 8mph /  12.9km/h 9mph /  14.5km/h 85.6% 0.00in /  0mm 457 W/m2
08:49 71.2 °F /  21.8 °C 66.4 °F /  19.1 °C 29.90in /  1012.4hPa SW 9mph /  14.5km/h 9mph /  14.5km/h 84.6% 0.00in /  0mm 473 W/m2
08:53 71.7 °F /  22.1 °C 66.6 °F /  19.2 °C 29.90in /  1012.4hPa SW 9.9mph /  15.9km/h 7.6mph /  12.2km/h 84% 0.00in /  0mm 486 W/m2
08:59 72 °F /  22.2 °C 66.5 °F /  19.2 °C 29.90in /  1012.4hPa SW 9mph /  14.5km/h 10mph /  16.1km/h 83% 0.00in /  0mm 509 W/m2
09:04 72.2 °F /  22.3 °C 66.8 °F /  19.3 °C 29.90in /  1012.4hPa SW 8.8mph /  14.2km/h 10mph /  16.1km/h 83% 0.00in /  0mm 532 W/m2
09:09 72.5 °F /  22.5 °C 66.4 °F /  19.1 °C 29.90in /  1012.4hPa SW 7.7mph /  12.4km/h 9mph /  14.5km/h 81.4% 0.00in /  0mm 543 W/m2
09:14 72.8 °F /  22.7 °C 66.6 °F /  19.2 °C 29.90in /  1012.4hPa SW 7.4mph /  11.9km/h 10mph /  16.1km/h 81% 0.00in /  0mm 549 W/m2
09:19 73.2 °F /  22.9 °C 66.9 °F /  19.4 °C 29.90in /  1012.4hPa SW 8.5mph /  13.7km/h 8mph /  12.9km/h 80.6% 0.00in /  0mm 573 W/m2
09:24 73.4 °F /  23 °C 67 °F /  19.4 °C 29.90in /  1012.4hPa SW 8.7mph /  14km/h 9mph /  14.5km/h 80.3% 0.00in /  0mm 588 W/m2
09:29 73.8 °F /  23.2 °C 67.2 °F /  19.6 °C 29.90in /  1012.4hPa SW 9.5mph /  15.3km/h 10mph /  16.1km/h 79.8% 0.00in /  0mm 603 W/m2
09:34 74.1 °F /  23.4 °C 67.3 °F /  19.6 °C 29.90in /  1012.4hPa SW 7.3mph /  11.7km/h 11mph /  17.7km/h 79.4% 0.00in /  0mm 613 W/m2
09:39 74.5 °F /  23.6 °C 67.5 °F /  19.7 °C 29.90in /  1012.4hPa SW 8.7mph /  14km/h 7mph /  11.3km/h 78.9% 0.00in /  0mm 636 W/m2
09:43 74.9 °F /  23.8 °C 67.7 °F /  19.8 °C 29.90in /  1012.4hPa SW 8.6mph /  13.8km/h 10mph /  16.1km/h 78.4% 0.00in /  0mm 644 W/m2
09:49 75.2 °F /  24 °C 67.9 °F /  19.9 °C 29.90in /  1012.4hPa SW 8.6mph /  13.8km/h 10mph /  16.1km/h 78% 0.00in /  0mm 665 W/m2
09:54 75.4 °F /  24.1 °C 67.9 °F /  19.9 °C 29.90in /  1012.4hPa SW 7.7mph /  12.4km/h 10mph /  16.1km/h 77.6% 0.00in /  0mm 678 W/m2
09:59 75.4 °F /  24.1 °C 67.8 °F /  19.9 °C 29.90in /  1012.4hPa SW 7.6mph /  12.2km/h 9mph /  14.5km/h 77.1% 0.00in /  0mm 690 W/m2
10:04 75.9 °F /  24.4 °C 68.3 °F /  20.2 °C 29.90in /  1012.4hPa SW 7.1mph /  11.4km/h 9mph /  14.5km/h 77.5% 0.00in /  0mm 703 W/m2
10:09 76.5 °F /  24.7 °C 68.3 °F /  20.2 °C 29.90in /  1012.4hPa SW 7.1mph /  11.4km/h 8mph /  12.9km/h 75.9% 0.00in /  0mm 717 W/m2
10:14 76.8 °F /  24.9 °C 68.3 °F /  20.2 °C 29.89in /  1012.1hPa SW 8.1mph /  13km/h 5.8mph /  9.3km/h 75% 0.00in /  0mm 727 W/m2
10:19 76.8 °F /  24.9 °C 68.1 °F /  20.1 °C 29.89in /  1012.1hPa SW 8.1mph /  13km/h 9mph /  14.5km/h 74.4% 0.00in /  0mm 732 W/m2
10:24 77.1 °F /  25.1 °C 68.4 °F /  20.2 °C 29.89in /  1012.1hPa SW 7.2mph /  11.6km/h 6.3mph /  10.1km/h 74.5% 0.00in /  0mm 743 W/m2
10:29 77.4 °F /  25.2 °C 68.5 °F /  20.3 °C 29.89in /  1012.1hPa SSW 7.1mph /  11.4km/h 7mph /  11.3km/h 74.4% 0.00in /  0mm 750 W/m2
10:34 77.5 °F /  25.3 °C 68.6 °F /  20.3 °C 29.89in /  1012.1hPa SSW 6.5mph /  10.5km/h 8mph /  12.9km/h 74% 0.00in /  0mm 765 W/m2
10:39 77.7 °F /  25.4 °C 68.8 °F /  20.4 °C 29.89in /  1012.1hPa SW 8.9mph /  14.3km/h 10mph /  16.1km/h 73.9% 0.00in /  0mm 768 W/m2
10:44 78.1 °F /  25.6 °C 69 °F /  20.6 °C 29.89in /  1012.1hPa SW 7.5mph /  12.1km/h 10mph /  16.1km/h 73.6% 0.00in /  0mm 786 W/m2
10:49 78.4 °F /  25.8 °C 69.3 °F /  20.7 °C 29.89in /  1012.1hPa SSW 7.2mph /  11.6km/h 8mph /  12.9km/h 73.5% 0.00in /  0mm 708 W/m2
10:54 78.6 °F /  25.9 °C 69.1 °F /  20.6 °C 29.89in /  1012.1hPa SSW 8.1mph /  13km/h 7mph /  11.3km/h 72.8% 0.00in /  0mm 693 W/m2
10:59 78.8 °F /  26 °C 69.1 °F /  20.6 °C 29.89in /  1012.1hPa SSW 6.9mph /  11.1km/h 9mph /  14.5km/h 72.4% 0.00in /  0mm 767 W/m2
11:04 79 °F /  26.1 °C 68.8 °F /  20.4 °C 29.89in /  1012.1hPa SSW 7mph /  11.3km/h 8mph /  12.9km/h 71.1% 0.00in /  0mm 578 W/m2
11:08 79.1 °F /  26.2 °C 68.6 °F /  20.3 °C 29.88in /  1011.7hPa South 8.1mph /  13km/h 8mph /  12.9km/h 70.4% 0.00in /  0mm 437 W/m2
11:14 79.1 °F /  26.2 °C 69.2 °F /  20.7 °C 29.88in /  1011.7hPa SSE 8.4mph /  13.5km/h 9mph /  14.5km/h 71.6% 0.00in /  0mm 341 W/m2
11:19 79.6 °F /  26.4 °C 69.2 °F /  20.7 °C 29.88in /  1011.7hPa SSE 7.6mph /  12.2km/h 8mph /  12.9km/h 70.7% 0.00in /  0mm 260 W/m2
11:24 80.2 °F /  26.8 °C 69.4 °F /  20.8 °C 29.88in /  1011.7hPa SSW 9mph /  14.5km/h 9mph /  14.5km/h 69.8% 0.00in /  0mm 356 W/m2
11:29 80.6 °F /  27 °C 69.6 °F /  20.9 °C 29.88in /  1011.7hPa SW 8.5mph /  13.7km/h 10mph /  16.1km/h 69.1% 0.00in /  0mm 668 W/m2
11:34 80.8 °F /  27.1 °C 69.5 °F /  20.8 °C 29.88in /  1011.7hPa SW 12mph /  19.3km/h 10mph /  16.1km/h 68.6% 0.00in /  0mm 859 W/m2
11:39 81.1 °F /  27.3 °C 69.9 °F /  21.1 °C 29.88in /  1011.7hPa SW 7.9mph /  12.7km/h 13mph /  20.9km/h 68.9% 0.00in /  0mm 936 W/m2
11:44 81.5 °F /  27.5 °C 70.1 °F /  21.2 °C 29.88in /  1011.7hPa SW 6mph /  9.7km/h 10mph /  16.1km/h 68.4% 0.00in /  0mm 978 W/m2
11:49 81.9 °F /  27.7 °C 70.4 °F /  21.3 °C 29.88in /  1011.7hPa SSW 6.4mph /  10.3km/h 7mph /  11.3km/h 68.1% 0.00in /  0mm 1004 W/m2
11:53 81.9 °F /  27.7 °C 70 °F /  21.1 °C 29.88in /  1011.7hPa SSW 6.7mph /  10.8km/h 7mph /  11.3km/h 67.5% 0.00in /  0mm 456 W/m2
11:59 81.7 °F /  27.6 °C 70.3 °F /  21.3 °C 29.88in /  1011.7hPa SW 6.7mph /  10.8km/h 9mph /  14.5km/h 68.5% 0.00in /  0mm 1038 W/m2
12:03 81.5 °F /  27.5 °C 69.8 °F /  21 °C 29.88in /  1011.7hPa SW 7.9mph /  12.7km/h 9mph /  14.5km/h 67.9% 0.00in /  0mm 457 W/m2
12:09 81 °F /  27.2 °C 69.5 °F /  20.8 °C 29.88in /  1011.7hPa WNW 6.5mph /  10.5km/h 10mph /  16.1km/h 68% 0.00in /  0mm 710 W/m2
12:14 80.8 °F /  27.1 °C 69.1 °F /  20.6 °C 29.88in /  1011.7hPa West 4.8mph /  7.7km/h 7mph /  11.3km/h 67.6% 0.00in /  0mm 782 W/m2
12:19 80.8 °F /  27.1 °C 68.5 °F /  20.3 °C 29.88in /  1011.7hPa WSW 6.7mph /  10.8km/h 6.3mph /  10.1km/h 66.3% 0.00in /  0mm 593 W/m2
12:23 80.9 °F /  27.2 °C 69.1 °F /  20.6 °C 29.88in /  1011.7hPa West 3.5mph /  5.6km/h 8mph /  12.9km/h 67.7% 0.00in /  0mm 930 W/m2
12:29 81.5 °F /  27.5 °C 69.5 °F /  20.8 °C 29.88in /  1011.7hPa WNW 5.5mph /  8.9km/h 6mph /  9.7km/h 67% 0.00in /  0mm 950 W/m2
12:34 82.2 °F /  27.9 °C 69.1 °F /  20.6 °C 29.88in /  1011.7hPa WNW 6.1mph /  9.8km/h 7mph /  11.3km/h 64.5% 0.00in /  0mm 964 W/m2
12:39 82.9 °F /  28.3 °C 69.6 °F /  20.9 °C 29.87in /  1011.4hPa NW 6.3mph /  10.1km/h 8mph /  12.9km/h 64.3% 0.00in /  0mm 962 W/m2
12:44 83.4 °F /  28.6 °C 70.3 °F /  21.3 °C 29.87in /  1011.4hPa NW 5mph /  8km/h 8mph /  12.9km/h 64.8% 0.00in /  0mm 951 W/m2
12:49 84.3 °F /  29.1 °C 70.6 °F /  21.4 °C 29.87in /  1011.4hPa WNW 7.2mph /  11.6km/h 6.9mph /  11.1km/h 63.7% 0.00in /  0mm 966 W/m2
12:54 84.4 °F /  29.1 °C 69.7 °F /  20.9 °C 29.87in /  1011.4hPa WNW 6.6mph /  10.6km/h 9mph /  14.5km/h 61.6% 0.00in /  0mm 962 W/m2
12:59 84 °F /  28.9 °C 69 °F /  20.6 °C 29.86in /  1011.1hPa NW 7.5mph /  12.1km/h 7mph /  11.3km/h 60.8% 0.00in /  0mm 667 W/m2
13:04 83.7 °F /  28.7 °C 69.6 °F /  20.9 °C 29.86in /  1011.1hPa WNW 8.7mph /  14km/h 9mph /  14.5km/h 62.7% 0.00in /  0mm 956 W/m2
13:09 83.8 °F /  28.8 °C 69.6 °F /  20.9 °C 29.86in /  1011.1hPa WNW 8.1mph /  13km/h 10mph /  16.1km/h 62.4% 0.00in /  0mm 1033 W/m2
13:14 83.9 °F /  28.8 °C 69.7 °F /  20.9 °C 29.86in /  1011.1hPa WNW 7.3mph /  11.7km/h 8mph /  12.9km/h 62.4% 0.00in /  0mm 633 W/m2
13:19 83.6 °F /  28.7 °C 69.4 °F /  20.8 °C 29.86in /  1011.1hPa WNW 9.1mph /  14.6km/h 11mph /  17.7km/h 62.4% 0.00in /  0mm 386 W/m2
13:24 83.2 °F /  28.4 °C 69.2 °F /  20.7 °C 29.86in /  1011.1hPa WNW 7.9mph /  12.7km/h 11mph /  17.7km/h 62.9% 0.00in /  0mm 407 W/m2
13:29 82.9 °F /  28.3 °C 68.9 °F /  20.5 °C 29.86in /  1011.1hPa West 6.2mph /  10km/h 8mph /  12.9km/h 62.8% 0.00in /  0mm 283 W/m2
13:34 82.7 °F /  28.2 °C 68.8 °F /  20.4 °C 29.86in /  1011.1hPa West 6.6mph /  10.6km/h 8mph /  12.9km/h 63.1% 0.00in /  0mm 259 W/m2
13:39 82.3 °F /  27.9 °C 68.9 °F /  20.5 °C 29.86in /  1011.1hPa West 8mph /  12.9km/h 8mph /  12.9km/h 63.9% 0.00in /  0mm 525 W/m2
13:44 82.5 °F /  28.1 °C 69 °F /  20.6 °C 29.86in /  1011.1hPa West 10mph /  16.1km/h 10mph /  16.1km/h 63.7% 0.00in /  0mm 847 W/m2
13:49 82.5 °F /  28.1 °C 69 °F /  20.6 °C 29.86in /  1011.1hPa WNW 10.9mph /  17.5km/h 13mph /  20.9km/h 63.9% 0.00in /  0mm 683 W/m2
13:54 82.6 °F /  28.1 °C 69.3 °F /  20.7 °C 29.86in /  1011.1hPa WNW 8.8mph /  14.2km/h 13mph /  20.9km/h 64.2% 0.00in /  0mm 917 W/m2
13:59 83 °F /  28.3 °C 69.2 °F /  20.7 °C 29.86in /  1011.1hPa West 6.6mph /  10.6km/h 10mph /  16.1km/h 63.3% 0.00in /  0mm 804 W/m2
14:04 83.3 °F /  28.5 °C 69.5 °F /  20.8 °C 29.86in /  1011.1hPa West 4.6mph /  7.4km/h 8mph /  12.9km/h 63.3% 0.00in /  0mm 373 W/m2
14:09 83.2 °F /  28.4 °C 69.1 °F /  20.6 °C 29.86in /  1011.1hPa West 7.8mph /  12.6km/h 6mph /  9.7km/h 62.6% 0.00in /  0mm 956 W/m2
14:14 83.5 °F /  28.6 °C 68.9 °F /  20.5 °C 29.86in /  1011.1hPa WNW 8.8mph /  14.2km/h 11mph /  17.7km/h 61.6% 0.00in /  0mm 525 W/m2
14:19 83.2 °F /  28.4 °C 68.7 °F /  20.4 °C 29.86in /  1011.1hPa WNW 8.1mph /  13km/h 11mph /  17.7km/h 61.8% 0.00in /  0mm 287 W/m2
14:24 83.1 °F /  28.4 °C 68.8 °F /  20.4 °C 29.85in /  1010.7hPa WNW 11.4mph /  18.3km/h 9mph /  14.5km/h 62.1% 0.00in /  0mm 859 W/m2
14:29 83.7 °F /  28.7 °C 69.2 °F /  20.7 °C 29.85in /  1010.7hPa West 10.9mph /  17.5km/h 7.2mph /  11.6km/h 61.8% 0.00in /  0mm 859 W/m2
14:34 84.3 °F /  29.1 °C 69.7 °F /  20.9 °C 29.85in /  1010.7hPa West 9.5mph /  15.3km/h 13mph /  20.9km/h 61.7% 0.00in /  0mm 841 W/m2
14:39 85 °F /  29.4 °C 69.5 °F /  20.8 °C 29.85in /  1010.7hPa WNW 8.4mph /  13.5km/h 12mph /  19.3km/h 59.9% 0.00in /  0mm 839 W/m2
Knjazevac, Serbia
Compliments of Weather Underground - 2 mb